Time;durP1;ratioP1;P1;durP2;ratioP2;P2;SDS_P1;SDS_P2;PMS_P1;PMS_P2;Temp;Humidity;BMP_temperature;BMP_pressure;BME280_temperature;BME280_humidity;BME280_pressure;Samples;Min_cycle;Max_cycle;Signal;HPM_P1;HPM_P2
2022/11/07 00:01:43;;;;;;;7.57;4.03;;;;;;;19.16;50.79;101354.78;5016152;28;20053;-75
2022/11/07 00:04:10;;;;;;;8.25;3.90;;;;;;;19.14;50.80;101348.69;5016361;28;20042;-75
2022/11/07 00:06:38;;;;;;;6.82;4.20;;;;;;;19.14;50.85;101348.69;5016668;28;20049;-75
2022/11/07 00:09:05;;;;;;;5.15;3.70;;;;;;;19.13;50.82;101344.31;5016062;28;20049;-75
2022/11/07 00:11:33;;;;;;;6.10;3.80;;;;;;;19.12;50.93;101354.19;5015876;28;20057;-75
2022/11/07 00:14:00;;;;;;;5.47;3.35;;;;;;;19.12;50.85;101354.19;5016490;28;20046;-75
2022/11/07 00:16:28;;;;;;;5.65;3.67;;;;;;;19.12;50.97;101359.56;5014756;28;20061;-75
2022/11/07 00:18:55;;;;;;;4.65;3.50;;;;;;;19.11;50.80;101351.59;5016126;28;20061;-76
2022/11/07 00:21:22;;;;;;;5.43;3.63;;;;;;;19.12;51.03;101358.69;5016447;28;20057;-76
2022/11/07 00:23:50;;;;;;;6.05;3.92;;;;;;;19.10;51.00;101348.06;5015978;28;20408;-76
2022/11/07 00:26:17;;;;;;;7.85;3.97;;;;;;;19.12;50.94;101353.31;5016375;28;20053;-76
2022/11/07 00:28:45;;;;;;;4.75;3.50;;;;;;;19.11;50.88;101352.47;5015842;28;20050;-76
2022/11/07 00:31:14;;;;;;;6.03;3.92;;;;;;;19.10;51.02;101358.81;5015959;28;20073;-76
2022/11/07 00:33:43;;;;;;;5.75;3.70;;;;;;;19.10;50.88;101356.13;5016695;28;20069;-75
2022/11/07 00:36:36;;;;;;;5.72;3.22;;;;;;;19.10;51.01;101356.13;5015866;28;20050;-75
2022/11/07 00:39:05;;;;;;;6.45;3.50;;;;;;;19.09;51.13;101364.31;5012567;28;20046;-76
2022/11/07 00:41:33;;;;;;;5.47;3.35;;;;;;;19.09;51.07;101367.84;5015686;28;20050;-76
2022/11/07 00:44:00;;;;;;;4.45;3.35;;;;;;;19.09;50.86;101362.47;5015976;28;20057;-75
2022/11/07 00:46:27;;;;;;;4.45;3.55;;;;;;;19.08;50.82;101366.13;5015928;28;20046;-75
2022/11/07 00:48:55;;;;;;;5.72;3.40;;;;;;;19.08;50.82;101368.81;5015690;28;20057;-75
2022/11/07 00:51:26;;;;;;;4.55;3.30;;;;;;;19.08;50.98;101373.31;5015434;28;20370;-75
2022/11/07 00:53:54;;;;;;;5.15;3.17;;;;;;;19.07;51.16;101366.22;5015056;28;20034;-75
2022/11/07 00:56:23;;;;;;;4.35;3.10;;;;;;;19.07;50.95;101369.75;5014299;28;20075;-75
2022/11/07 00:58:55;;;;;;;4.60;3.72;;;;;;;19.05;51.05;101363.69;5015224;28;20434;-75
2022/11/07 01:01:31;;;;;;;5.88;3.28;;;;;;;19.06;51.07;101377.94;5015557;28;20050;-76
2022/11/07 01:07:05;;;;;;;5.32;3.22;;;;;;;19.06;50.87;101386.00;5032791;28;20160;-75
2022/11/07 01:09:33;;;;;;;5.50;3.08;;;;;;;19.06;51.28;101381.47;5016232;28;20050;-75
2022/11/07 01:12:00;;;;;;;4.60;3.63;;;;;;;19.05;51.27;101381.59;5033422;28;20545;-75
2022/11/07 01:14:28;;;;;;;3.78;2.85;;;;;;;19.04;51.16;101378.06;5015643;28;20520;-75
2022/11/07 01:16:55;;;;;;;3.50;2.60;;;;;;;19.03;51.06;101373.66;5032960;28;20053;-75
2022/11/07 01:19:22;;;;;;;5.35;3.15;;;;;;;19.03;51.13;101373.66;5032833;28;20057;-75
2022/11/07 01:21:50;;;;;;;5.00;3.08;;;;;;;19.04;51.04;101378.06;5032610;28;20060;-75
2022/11/07 01:24:17;;;;;;;5.18;3.20;;;;;;;19.03;51.19;101377.19;5032298;28;20058;-75
2022/11/07 01:26:48;;;;;;;4.88;3.47;;;;;;;19.02;51.14;101378.16;5032376;28;20049;-75
2022/11/07 01:29:16;;;;;;;5.78;3.15;;;;;;;19.03;51.12;101379.03;5033247;28;20066;-75
2022/11/07 01:31:44;;;;;;;7.10;3.72;;;;;;;19.02;51.16;101377.31;5032674;28;20061;-75
2022/11/07 01:34:11;;;;;;;5.13;2.95;;;;;;;19.00;51.12;101369.41;5032815;28;20049;-75
2022/11/07 01:36:39;;;;;;;6.18;3.72;;;;;;;19.00;51.28;101369.41;5032188;28;20547;-75
2022/11/07 01:39:06;;;;;;;5.45;2.95;;;;;;;19.00;51.09;101380.13;5014908;28;20084;-75
2022/11/07 01:41:36;;;;;;;4.72;3.08;;;;;;;19.01;50.96;101383.66;5014854;28;20050;-75
2022/11/07 01:44:03;;;;;;;4.57;3.20;;;;;;;19.00;50.98;101382.81;5014370;28;20041;-76
2022/11/07 01:46:32;;;;;;;4.47;3.22;;;;;;;19.00;50.98;101372.09;5014418;28;20057;-75
2022/11/07 01:49:05;;;;;;;4.63;3.58;;;;;;;18.99;51.10;101374.84;5014663;28;20046;-75
2022/11/07 01:51:38;;;;;;;3.90;2.80;;;;;;;18.98;51.11;101368.66;5014314;28;20050;-76
2022/11/07 01:54:06;;;;;;;4.63;3.03;;;;;;;18.99;51.08;101362.28;4993916;28;20058;-75
2022/11/07 01:56:37;;;;;;;5.38;3.08;;;;;;;18.98;51.02;101360.59;5012843;28;20050;-76
2022/11/07 01:59:05;;;;;;;6.07;3.03;;;;;;;18.99;51.04;101356.06;5014667;28;20045;-76
2022/11/07 02:01:33;;;;;;;6.05;3.03;;;;;;;18.98;51.12;101357.91;5014456;28;20049;-75
2022/11/07 02:04:01;;;;;;;5.15;3.28;;;;;;;18.99;51.10;101361.44;5014861;28;20052;-75
2022/11/07 02:06:42;;;;;;;5.35;3.47;;;;;;;18.97;51.07;101356.22;5014048;28;20054;-75
2022/11/07 02:09:10;;;;;;;4.05;2.88;;;;;;;18.98;51.12;101359.75;5013884;28;20052;-75
2022/11/07 02:11:37;;;;;;;3.85;2.67;;;;;;;18.96;51.05;101359.88;5013690;28;20065;-75
2022/11/07 02:14:05;;;;;;;4.80;3.42;;;;;;;18.96;51.10;101362.56;5014252;28;20045;-76
2022/11/07 02:16:35;;;;;;;3.65;2.88;;;;;;;18.97;51.03;101352.69;5013937;28;20049;-75
2022/11/07 02:19:09;;;;;;;5.32;3.38;;;;;;;18.95;50.97;101351.91;5013328;28;20061;-75
2022/11/07 02:22:03;;;;;;;5.47;3.83;;;;;;;18.95;50.99;101355.44;5014299;28;20054;-75
2022/11/07 02:24:34;;;;;;;4.85;3.40;;;;;;;18.96;51.05;101350.97;5013835;28;20050;-75
2022/11/07 02:27:13;;;;;;;5.00;3.03;;;;;;;18.95;51.07;101349.22;5014294;28;20052;-75
2022/11/07 02:29:44;;;;;;;4.32;2.92;;;;;;;18.94;51.00;101351.06;5013788;28;20500;-75
2022/11/07 02:32:12;;;;;;;5.05;3.60;;;;;;;18.93;50.94;101348.50;5014129;28;20050;-75
2022/11/07 02:34:39;;;;;;;3.78;2.75;;;;;;;18.93;51.03;101351.19;5013588;28;20482;-75
2022/11/07 02:37:21;;;;;;;4.68;3.15;;;;;;;18.94;50.86;101360.94;5014002;28;20473;-76
2022/11/07 02:39:49;;;;;;;4.22;2.80;;;;;;;18.93;51.10;101362.78;5014006;28;20105;-75
2022/11/07 02:42:17;;;;;;;5.80;3.38;;;;;;;18.92;51.08;101354.81;5013597;28;20049;-75
2022/11/07 02:44:46;;;;;;;4.13;2.67;;;;;;;18.93;51.02;101356.56;5013553;28;20050;-76
2022/11/07 02:47:14;;;;;;;3.70;2.55;;;;;;;18.93;51.06;101361.94;5013424;28;20052;-76
2022/11/07 02:49:41;;;;;;;4.43;3.05;;;;;;;18.92;50.96;101369.13;5013695;28;20053;-75
2022/11/07 02:52:09;;;;;;;4.05;2.78;;;;;;;18.92;50.97;101362.88;5013253;28;20060;-75
2022/11/07 02:54:36;;;;;;;5.03;3.08;;;;;;;18.93;50.91;101364.63;5013086;28;20046;-77
2022/11/07 02:57:04;;;;;;;4.47;2.95;;;;;;;18.91;50.78;101363.84;5013409;28;20042;-78
2022/11/07 02:59:31;;;;;;;4.72;2.85;;;;;;;18.91;51.18;101362.03;5013378;28;20053;-75
2022/11/07 03:01:58;;;;;;;4.03;2.67;;;;;;;18.91;51.17;101367.38;5013212;28;20382;-75
2022/11/07 03:04:26;;;;;;;3.90;2.60;;;;;;;18.91;51.01;101371.91;5016332;28;20057;-76
2022/11/07 03:06:53;;;;;;;5.18;3.03;;;;;;;18.91;51.00;101369.22;5017913;28;20409;-76
2022/11/07 03:09:20;;;;;;;3.97;2.80;;;;;;;18.92;51.15;101376.28;5017210;28;20038;-76
2022/11/07 03:11:47;;;;;;;4.95;3.05;;;;;;;18.91;50.87;101371.91;5017625;28;20405;-76
2022/11/07 03:14:15;;;;;;;7.55;2.58;;;;;;;18.90;51.21;101371.06;5018048;28;20053;-75
2022/11/07 03:16:42;;;;;;;7.80;3.38;;;;;;;18.89;50.99;101376.53;5017129;28;20057;-75
2022/11/07 03:19:09;;;;;;;6.20;2.95;;;;;;;18.89;51.15;101368.50;5017061;28;20053;-76
2022/11/07 03:21:36;;;;;;;6.25;3.38;;;;;;;18.89;50.99;101371.19;5017394;28;20374;-76
2022/11/07 03:24:04;;;;;;;4.10;2.80;;;;;;;18.89;51.07;101371.19;5016043;28;20054;-75
2022/11/07 03:26:31;;;;;;;4.72;2.88;;;;;;;18.89;51.00;101373.88;5017073;28;20409;-75
2022/11/07 03:28:58;;;;;;;3.50;2.67;;;;;;;18.88;50.98;101373.00;5017657;28;20050;-75
2022/11/07 03:31:26;;;;;;;4.60;2.90;;;;;;;18.87;50.96;101368.59;5016937;28;20049;-75
2022/11/07 03:33:53;;;;;;;3.90;2.47;;;;;;;18.87;51.11;101370.44;5016808;28;20057;-75
2022/11/07 03:36:20;;;;;;;4.95;3.50;;;;;;;18.88;50.90;101372.13;5017212;28;20057;-75
2022/11/07 03:38:47;;;;;;;5.32;2.90;;;;;;;18.87;51.03;101367.75;5016719;28;20061;-75
2022/11/07 03:41:16;;;;;;;4.15;2.50;;;;;;;18.86;51.02;101363.34;5016845;28;20068;-75
2022/11/07 03:43:44;;;;;;;4.57;2.78;;;;;;;18.86;50.90;101368.72;5016645;28;20046;-75
2022/11/07 03:46:13;;;;;;;5.00;3.00;;;;;;;18.87;50.81;101370.44;5016998;28;20049;-74
2022/11/07 03:48:40;;;;;;;4.43;2.40;;;;;;;18.86;50.93;101384.81;5015449;28;20058;-75
2022/11/07 03:51:09;;;;;;;3.40;2.35;;;;;;;18.85;50.83;101378.59;5016595;28;20050;-75
2022/11/07 03:53:36;;;;;;;3.83;2.20;;;;;;;18.85;50.81;101383.97;5016986;28;20056;-76
2022/11/07 03:56:08;;;;;;;4.90;2.72;;;;;;;18.85;50.81;101377.75;5016097;28;20050;-76
2022/11/07 03:58:36;;;;;;;3.72;2.63;;;;;;;18.85;50.88;101383.97;5016084;28;20046;-76
2022/11/07 04:01:04;;;;;;;4.57;2.90;;;;;;;18.85;50.83;101386.66;5016531;28;20038;-75
2022/11/07 04:03:31;;;;;;;5.13;2.67;;;;;;;18.85;50.74;101385.78;5016197;28;20046;-73
2022/11/07 04:05:59;;;;;;;8.15;2.45;;;;;;;18.84;50.80;101386.75;5016533;28;20497;-74
2022/11/07 04:08:26;;;;;;;6.22;2.67;;;;;;;18.84;50.65;101392.09;5015657;28;20397;-74
2022/11/07 04:10:53;;;;;;;5.05;2.78;;;;;;;18.83;50.77;101395.78;5015836;28;20053;-74
2022/11/07 04:19:47;;;;;;;3.53;2.53;;;;;;;18.82;50.76;101400.28;5016536;28;20053;-75
2022/11/07 04:22:15;;;;;;;4.38;2.70;;;;;;;18.82;50.80;101405.66;5015931;28;20478;-75
2022/11/07 04:24:43;;;;;;;4.63;2.47;;;;;;;18.81;50.79;101398.56;5016082;28;20405;-75
2022/11/07 04:30:17;;;;;;;4.95;3.10;;;;;;;18.81;50.59;101395.91;5015903;28;20389;-75
2022/11/07 04:32:56;;;;;;;3.50;2.30;;;;;;;18.81;50.57;101406.63;5015771;28;20050;-75
2022/11/07 04:35:25;;;;;;;4.82;2.70;;;;;;;18.80;50.69;101412.97;5014805;28;20054;-75
2022/11/07 04:37:53;;;;;;;3.95;2.40;;;;;;;18.81;50.57;101405.78;5015476;28;20046;-76
2022/11/07 04:40:21;;;;;;;3.78;2.47;;;;;;;18.79;50.58;101405.88;5015611;28;20454;-75
2022/11/07 04:42:49;;;;;;;4.72;2.60;;;;;;;18.79;50.66;101411.22;5015751;28;20045;-75
2022/11/07 04:45:16;;;;;;;3.70;2.50;;;;;;;18.79;50.68;101411.22;5015794;28;20050;-73
2022/11/07 04:47:44;;;;;;;4.45;2.63;;;;;;;18.78;50.66;101410.38;5015427;28;20049;-75
2022/11/07 04:50:13;;;;;;;3.28;2.38;;;;;;;18.78;50.60;101414.91;5015585;28;20042;-75
2022/11/07 04:52:41;;;;;;;3.72;2.50;;;;;;;18.78;50.93;101414.91;5015762;28;20052;-75
2022/11/07 04:55:20;;;;;;;4.07;2.70;;;;;;;18.77;50.59;101427.47;5015449;28;20057;-76
2022/11/07 04:57:47;;;;;;;3.85;2.58;;;;;;;18.77;50.82;101424.78;5013666;28;20065;-74
2022/11/07 05:00:17;;;;;;;5.10;2.58;;;;;;;18.77;50.58;101430.13;5015041;28;20041;-76
2022/11/07 05:02:45;;;;;;;5.38;2.20;;;;;;;18.76;50.68;101444.53;5015243;28;20046;-74
2022/11/07 05:05:13;;;;;;;4.00;2.47;;;;;;;18.77;50.70;101443.56;5015077;28;20045;-75
2022/11/07 05:07:41;;;;;;;4.40;2.63;;;;;;;18.76;50.75;101444.53;5015366;28;20512;-74
2022/11/07 05:10:17;;;;;;;3.63;2.35;;;;;;;18.76;50.45;101447.22;5015541;28;20485;-73
2022/11/07 05:12:44;;;;;;;4.60;2.17;;;;;;;18.76;50.79;101449.88;5014917;28;20392;-80
2022/11/07 05:15:12;;;;;;;4.45;2.30;;;;;;;18.77;50.73;101453.44;5015353;28;20053;-74
2022/11/07 05:17:40;;;;;;;6.18;2.60;;;;;;;18.76;50.47;101457.09;5013886;28;20489;-81
2022/11/07 05:20:25;;;;;;;4.85;2.60;;;;;;;18.77;50.59;101456.09;5015106;28;20045;-78
2022/11/07 05:23:12;;;;;;;4.30;2.63;;;;;;;18.76;50.69;101462.44;5015057;28;20038;-77
2022/11/07 05:25:48;;;;;;;4.75;2.28;;;;;;;18.76;50.67;101470.50;5014947;28;20061;-77
2022/11/07 05:28:26;;;;;;;5.03;2.30;;;;;;;18.75;50.63;101461.56;5015267;28;20054;-78
2022/11/07 05:31:06;;;;;;;3.10;1.80;;;;;;;18.76;50.73;101465.97;5013988;28;20375;-75
2022/11/07 05:33:34;;;;;;;4.35;2.58;;;;;;;18.75;50.64;101456.19;5015047;28;20489;-75
2022/11/07 05:36:08;;;;;;;5.40;2.78;;;;;;;18.76;50.73;101460.63;5014567;28;20052;-76
2022/11/07 05:38:35;;;;;;;6.40;2.70;;;;;;;18.75;50.51;101449.97;5014825;28;20046;-76
2022/11/07 05:41:03;;;;;;;5.32;2.25;;;;;;;18.73;50.65;101439.38;5014665;28;20045;-75
2022/11/07 05:43:30;;;;;;;4.72;2.88;;;;;;;18.74;50.58;101446.44;5014707;28;20061;-75
2022/11/07 05:45:59;;;;;;;4.10;2.63;;;;;;;18.74;50.62;101449.13;5014427;28;20060;-75
2022/11/07 05:48:26;;;;;;;4.93;2.63;;;;;;;18.74;50.55;101451.81;5014751;28;20050;-75
2022/11/07 05:50:53;;;;;;;7.10;2.45;;;;;;;18.73;50.58;101457.31;5014333;28;20042;-75
2022/11/07 05:53:21;;;;;;;3.03;2.00;;;;;;;18.73;50.55;101458.16;5013197;28;20053;-75
2022/11/07 05:55:48;;;;;;;4.13;2.50;;;;;;;18.72;50.68;101458.28;5014470;28;20046;-75
2022/11/07 05:58:15;;;;;;;4.63;2.40;;;;;;;18.71;50.59;101460.06;5014083;28;20049;-75
2022/11/07 06:00:43;;;;;;;3.75;2.45;;;;;;;18.71;50.75;101464.59;5013417;28;20492;-75
2022/11/07 06:03:10;;;;;;;3.70;2.28;;;;;;;18.71;50.55;101460.06;5014069;28;20053;-75
2022/11/07 06:05:38;;;;;;;4.45;2.38;;;;;;;18.71;50.54;101454.72;5014594;28;20061;-75
2022/11/07 06:08:08;;;;;;;5.32;3.03;;;;;;;18.73;50.64;101459.97;5013720;28;20053;-75
2022/11/07 06:10:37;;;;;;;4.18;2.25;;;;;;;18.70;50.57;101452.16;5013865;28;20398;-75
2022/11/07 06:13:06;;;;;;;3.15;1.90;;;;;;;18.70;50.60;101462.88;5014547;28;20061;-75
2022/11/07 06:15:36;;;;;;;3.60;2.17;;;;;;;18.70;50.55;101473.63;5013689;28;20052;-75
2022/11/07 06:18:06;;;;;;;5.70;2.25;;;;;;;18.70;50.39;101476.28;5013808;28;20052;-75
2022/11/07 06:20:34;;;;;;;4.05;2.28;;;;;;;18.68;50.67;101473.69;5014025;28;20053;-75
2022/11/07 06:23:03;;;;;;;3.88;2.13;;;;;;;18.69;50.38;101471.88;5014317;28;20042;-75
2022/11/07 06:25:31;;;;;;;4.30;2.60;;;;;;;18.68;50.46;101476.38;5013898;28;20054;-75
2022/11/07 06:28:00;;;;;;;4.35;2.35;;;;;;;18.68;50.46;101476.38;5013597;28;20050;-76
2022/11/07 06:30:28;;;;;;;4.57;2.35;;;;;;;18.68;50.57;101484.44;5014272;28;20046;-75
2022/11/07 06:32:59;;;;;;;2.95;2.00;;;;;;;18.68;50.51;101480.91;5013771;28;20052;-75
2022/11/07 06:35:27;;;;;;;3.75;2.20;;;;;;;18.68;50.44;101486.25;5013732;28;20050;-76
2022/11/07 06:37:55;;;;;;;4.63;2.05;;;;;;;18.69;50.56;101496.00;5012998;28;20505;-75
2022/11/07 06:40:22;;;;;;;4.78;2.40;;;;;;;18.68;50.59;101497.84;5013415;28;20046;-75
2022/11/07 06:42:49;;;;;;;3.80;2.08;;;;;;;18.67;50.59;101509.50;5013630;28;20046;-75
2022/11/07 06:45:16;;;;;;;4.13;1.80;;;;;;;18.67;50.50;101514.03;5013422;28;20490;-76
2022/11/07 06:47:44;;;;;;;3.78;2.13;;;;;;;18.67;50.57;101511.34;5013608;28;20045;-75
2022/11/07 06:50:11;;;;;;;4.85;2.20;;;;;;;18.66;50.56;101521.22;5013273;28;20056;-76
2022/11/07 06:52:38;;;;;;;3.60;2.30;;;;;;;18.66;50.51;101529.25;5013519;28;20038;-75
2022/11/07 06:55:06;;;;;;;4.78;2.63;;;;;;;18.66;50.70;101523.91;5013948;28;20046;-75
2022/11/07 06:57:33;;;;;;;4.05;2.30;;;;;;;18.66;50.59;101539.13;5013511;28;20425;-76
2022/11/07 07:00:04;;;;;;;3.75;1.98;;;;;;;18.65;50.62;101549.00;5012292;28;20046;-75
2022/11/07 07:02:31;;;;;;;4.70;2.40;;;;;;;18.65;50.55;101551.69;5013292;28;20427;-75
2022/11/07 07:05:19;;;;;;;3.55;2.15;;;;;;;18.65;50.51;101554.38;5012705;28;20073;-76
2022/11/07 07:07:47;;;;;;;4.82;2.28;;;;;;;18.66;50.59;101564.13;5013415;28;20049;-75
2022/11/07 07:10:15;;;;;;;4.03;2.38;;;;;;;18.65;50.65;101570.47;5012223;28;20050;-75
2022/11/07 07:12:43;;;;;;;3.80;2.28;;;;;;;18.65;50.58;101570.47;5013229;28;20406;-75
2022/11/07 07:15:10;;;;;;;4.22;2.90;;;;;;;18.64;50.71;101579.50;5013209;28;20410;-75
2022/11/07 07:17:37;;;;;;;3.38;1.95;;;;;;;18.65;50.65;101570.47;5011932;28;20528;-75
2022/11/07 07:20:05;;;;;;;4.32;2.30;;;;;;;18.65;50.66;101574.97;5013399;28;20050;-75
2022/11/07 07:22:33;;;;;;;2.80;1.77;;;;;;;18.65;50.76;101572.28;5013508;28;20042;-75
2022/11/07 07:25:00;;;;;;;5.20;2.20;;;;;;;18.65;50.66;101570.47;5013117;28;20042;-75
2022/11/07 07:27:27;;;;;;;3.60;2.38;;;;;;;18.64;50.54;101582.16;5012790;28;20052;-75
2022/11/07 07:29:55;;;;;;;4.20;2.00;;;;;;;18.65;50.60;101583.88;5013552;28;20053;-75
2022/11/07 07:32:24;;;;;;;3.42;2.08;;;;;;;18.64;50.60;101579.50;5013094;28;20505;-75
2022/11/07 07:34:51;;;;;;;3.00;1.75;;;;;;;18.64;50.59;101595.59;5013158;28;20050;-75
2022/11/07 07:37:19;;;;;;;5.50;3.13;;;;;;;18.64;50.34;101586.69;5012908;28;20413;-75
2022/11/07 07:39:46;;;;;;;4.28;2.35;;;;;;;18.64;50.69;101595.59;5013882;28;20042;-75
2022/11/07 07:42:13;;;;;;;4.65;2.67;;;;;;;18.65;51.05;101604.47;5012889;28;20050;-74
2022/11/07 07:44:44;;;;;;;3.53;2.22;;;;;;;18.64;50.98;101600.94;5011671;28;20050;-75
2022/11/07 07:47:11;;;;;;;5.53;2.17;;;;;;;18.65;50.73;101608.00;5013537;28;20057;-75
2022/11/07 07:49:38;;;;;;;4.13;1.80;;;;;;;18.65;50.72;101599.97;5014609;28;20046;-79
2022/11/07 07:52:05;;;;;;;7.70;3.10;;;;;;;18.54;46.07;101597.19;5015630;28;20044;-76
2022/11/07 07:54:36;;;;;;;8.15;3.83;;;;;;;18.30;45.36;101602.44;5015143;28;20053;-76
2022/11/07 07:57:03;;;;;;;5.85;3.65;;;;;;;18.16;45.66;101605.22;5016012;28;20046;-76
2022/11/07 07:59:31;;;;;;;4.80;3.50;;;;;;;18.06;45.80;101607.66;5015639;28;20046;-76
2022/11/07 08:01:58;;;;;;;6.47;3.33;;;;;;;18.06;47.08;101613.00;5014891;28;20042;-77
2022/11/07 08:04:25;;;;;;;6.25;3.55;;;;;;;18.08;47.22;101616.47;5016133;28;20045;-75
2022/11/07 08:06:53;;;;;;;5.43;2.85;;;;;;;18.06;46.69;101618.38;5015875;28;20393;-76
2022/11/07 08:09:20;;;;;;;5.53;3.30;;;;;;;18.03;46.63;101619.47;5016289;28;20053;-79
2022/11/07 08:11:47;;;;;;;7.85;4.30;;;;;;;17.99;46.20;101617.09;5016108;28;20497;-78
2022/11/07 08:14:14;;;;;;;5.85;3.72;;;;;;;17.98;46.56;101621.56;5016610;28;20042;-76
2022/11/07 08:16:42;;;;;;;6.53;3.90;;;;;;;18.01;46.64;101620.50;5016634;28;20062;-77
2022/11/07 08:19:09;;;;;;;13.20;3.95;;;;;;;18.04;46.77;101615.81;5016540;28;20057;-81
2022/11/07 08:21:36;;;;;;;7.93;4.28;;;;;;;18.08;46.94;101619.13;5016726;28;20038;-80
2022/11/07 08:24:04;;;;;;;9.90;4.22;;;;;;;18.13;46.78;101624.19;5015462;28;20045;-76
2022/11/07 08:26:31;;;;;;;14.25;4.30;;;;;;;18.16;47.10;101626.66;5016481;28;20053;-80
2022/11/07 08:28:58;;;;;;;12.15;5.03;;;;;;;18.20;47.03;101630.84;5016277;28;20505;-79
2022/11/07 08:31:25;;;;;;;11.93;4.72;;;;;;;18.22;47.01;101632.44;5014828;28;20398;-79
2022/11/07 08:33:56;;;;;;;7.10;4.78;;;;;;;18.24;46.39;101633.22;5016396;28;20046;-80
2022/11/07 08:36:24;;;;;;;8.38;5.70;;;;;;;18.25;46.58;101631.38;5015993;28;20045;-80
2022/11/07 08:38:52;;;;;;;7.10;3.13;;;;;;;18.29;48.02;101638.25;5014960;28;20053;-79
2022/11/07 08:41:20;;;;;;;10.48;3.55;;;;;;;18.34;48.57;101635.25;5015794;28;20508;-79
2022/11/07 08:43:48;;;;;;;4.75;2.50;;;;;;;18.38;48.86;101642.13;5015867;28;20054;-79
2022/11/07 08:46:16;;;;;;;7.75;3.28;;;;;;;18.42;49.22;101641.78;5015871;28;20053;-79
2022/11/07 08:48:43;;;;;;;4.55;2.20;;;;;;;18.47;49.33;101650.41;5015897;28;20050;-79
2022/11/07 08:51:10;;;;;;;6.82;2.70;;;;;;;18.50;49.14;101647.47;5015407;28;20053;-76
2022/11/07 08:53:37;;;;;;;8.98;3.08;;;;;;;18.54;49.54;101648.13;5015494;28;20046;-79
2022/11/07 08:56:07;;;;;;;6.43;2.75;;;;;;;18.57;49.60;101650.59;5015946;28;20489;-78
2022/11/07 08:58:35;;;;;;;5.55;2.53;;;;;;;18.59;49.68;101645.97;5016092;28;20057;-79
2022/11/07 09:01:07;;;;;;;4.40;2.40;;;;;;;18.62;49.81;101652.97;5014367;28;20050;-82
2022/11/07 09:03:36;;;;;;;4.40;2.28;;;;;;;18.64;49.93;101654.59;5015563;28;20513;-80
2022/11/07 09:06:19;;;;;;;5.25;2.00;;;;;;;18.65;49.72;101650.06;5016465;28;20509;-79
2022/11/07 09:08:47;;;;;;;6.53;2.10;;;;;;;18.67;49.92;101651.66;5015139;28;20050;-82
2022/11/07 09:11:17;;;;;;;6.03;2.33;;;;;;;18.69;50.02;101652.44;5015546;28;20057;-78
2022/11/07 09:13:46;;;;;;;7.50;2.20;;;;;;;18.72;49.97;101664.81;5015427;28;20053;-79
2022/11/07 09:16:16;;;;;;;3.97;2.30;;;;;;;18.74;49.94;101657.50;5015823;28;20041;-79
2022/11/07 09:18:45;;;;;;;4.63;2.60;;;;;;;18.74;49.79;101650.31;5014581;28;20409;-80
2022/11/07 09:21:13;;;;;;;3.95;2.25;;;;;;;18.76;50.14;101647.53;5015428;28;20046;-79
2022/11/07 09:23:48;;;;;;;13.00;2.50;;;;;;;18.77;49.83;101658.13;5015225;28;20504;-81
2022/11/07 09:26:15;;;;;;;3.75;2.13;;;;;;;18.78;50.07;101653.63;5015382;28;20052;-77
2022/11/07 09:28:42;;;;;;;4.13;2.00;;;;;;;18.81;50.13;101656.09;5015286;28;20045;-77
2022/11/07 09:31:17;;;;;;;4.05;2.33;;;;;;;18.80;50.14;101656.19;5014548;28;20050;-77
2022/11/07 09:33:44;;;;;;;4.65;2.33;;;;;;;18.82;49.77;101656.97;5014477;28;20038;-76
2022/11/07 09:36:12;;;;;;;5.97;2.80;;;;;;;18.82;49.98;101649.75;5014973;28;20050;-76
2022/11/07 09:38:39;;;;;;;5.55;2.42;;;;;;;18.83;49.74;101658.66;5014563;28;20042;-76
2022/11/07 09:41:09;;;;;;;5.20;2.20;;;;;;;18.84;49.60;101652.31;5013510;28;20046;-79
2022/11/07 09:43:41;;;;;;;3.60;1.98;;;;;;;18.85;49.90;101664.78;5012853;28;20038;-77
2022/11/07 09:46:24;;;;;;;6.03;2.20;;;;;;;18.84;49.83;101661.25;5014206;28;20049;-77
2022/11/07 09:48:58;;;;;;;5.20;1.98;;;;;;;18.85;49.76;101654.91;5014435;28;20050;-79
2022/11/07 09:51:35;;;;;;;5.80;2.50;;;;;;;18.86;49.82;101650.41;5014505;28;20393;-76
2022/11/07 09:54:17;;;;;;;4.35;2.65;;;;;;;18.86;49.94;101656.63;5014633;28;20045;-79
2022/11/07 09:56:45;;;;;;;5.43;2.70;;;;;;;18.86;49.96;101645.91;5015293;28;20046;-78
2022/11/07 09:59:31;;;;;;;8.40;3.05;;;;;;;18.88;50.25;101659.19;5014315;28;20390;-79
2022/11/07 10:01:58;;;;;;;4.70;2.10;;;;;;;18.87;50.50;101654.81;5014452;28;20045;-81
2022/11/07 10:04:26;;;;;;;3.92;2.17;;;;;;;18.89;50.15;101652.88;5013962;28;20050;-80
2022/11/07 10:07:05;;;;;;;4.30;2.53;;;;;;;18.91;50.00;101656.31;5014486;28;20050;-78
2022/11/07 10:09:48;;;;;;;4.57;2.17;;;;;;;18.90;50.11;101650.06;5014440;28;20520;-79
2022/11/07 10:12:33;;;;;;;6.65;2.40;;;;;;;18.92;49.92;101658.00;5014267;28;20061;-76
2022/11/07 10:15:17;;;;;;;5.30;2.50;;;;;;;18.91;49.94;101646.41;5014746;28;20045;-80
2022/11/07 10:18:02;;;;;;;4.45;2.42;;;;;;;18.92;49.92;101648.16;5014774;28;20042;-79
2022/11/07 10:20:47;;;;;;;4.25;2.38;;;;;;;18.91;49.93;101646.41;5013057;28;20057;-78
2022/11/07 10:23:32;;;;;;;3.83;2.53;;;;;;;18.92;49.81;101647.28;5014897;28;20042;-81
2022/11/07 10:26:29;;;;;;;;;;;;;;;;;;;;;
2022/11/07 10:29:59;;;;;;;5.47;2.58;;;;;;;18.94;50.03;101643.53;5015218;28;20058;-80
2022/11/07 10:32:33;;;;;;;5.82;2.70;;;;;;;18.95;49.94;101641.69;5012570;28;20056;-76
2022/11/07 10:35:14;;;;;;;6.82;2.97;;;;;;;18.95;50.29;101645.22;5013520;28;20397;-76
2022/11/07 10:37:42;;;;;;;4.95;3.20;;;;;;;18.97;50.33;101642.47;5013495;28;20053;-76
2022/11/07 10:40:20;;;;;;;5.53;3.15;;;;;;;18.97;50.01;101637.09;5013491;28;20048;-79
2022/11/07 10:42:52;;;;;;;7.13;3.03;;;;;;;18.97;50.23;101631.72;5012250;28;20053;-76
2022/11/07 10:45:22;;;;;;;8.18;2.92;;;;;;;18.97;50.00;101629.91;5013472;28;20042;-77
2022/11/07 10:47:56;;;;;;;5.68;2.80;;;;;;;18.97;49.84;101632.59;5012155;28;20053;-78
2022/11/07 10:50:24;;;;;;;5.75;3.78;;;;;;;18.97;49.64;101623.69;5013220;28;20053;-77
2022/11/07 10:52:57;;;;;;;6.45;4.47;;;;;;;18.98;49.78;101628.06;5012764;28;20053;-80
2022/11/07 10:55:26;;;;;;;9.75;4.28;;;;;;;18.98;49.57;101625.38;5013943;28;20065;-77
2022/11/07 10:58:01;;;;;;;7.75;4.00;;;;;;;18.98;49.69;101620.03;5013420;28;20486;-77
2022/11/07 11:00:31;;;;;;;5.75;3.28;;;;;;;19.00;50.12;101623.47;5013250;28;20049;-77
2022/11/07 11:02:59;;;;;;;8.70;3.13;;;;;;;18.99;50.37;101611.00;5011937;28;20046;-79
2022/11/07 11:05:53;;;;;;;6.20;3.28;;;;;;;18.99;50.07;101625.25;5007739;28;20054;-79
2022/11/07 11:08:30;;;;;;;5.32;2.90;;;;;;;19.01;50.08;101611.75;4994540;28;20402;-78
2022/11/07 11:10:58;;;;;;;5.72;3.55;;;;;;;19.00;50.22;101615.41;4994301;28;20063;-78
2022/11/07 11:13:29;;;;;;;5.93;3.28;;;;;;;19.01;50.39;101614.44;5001153;28;20038;-79
2022/11/07 11:15:58;;;;;;;6.57;3.03;;;;;;;19.01;50.23;101614.44;5012439;28;20402;-78
2022/11/07 11:18:32;;;;;;;4.75;3.00;;;;;;;19.01;50.45;101617.97;5013229;28;20059;-78
2022/11/07 11:21:01;;;;;;;6.50;2.95;;;;;;;19.02;50.85;101610.78;5013460;28;20057;-78
2022/11/07 11:23:34;;;;;;;5.90;3.33;;;;;;;19.01;50.28;101611.75;5011782;28;20049;-77
2022/11/07 11:26:07;;;;;;;8.73;3.30;;;;;;;19.02;50.18;101611.63;5017344;28;20405;-78
2022/11/07 11:28:38;;;;;;;5.80;3.65;;;;;;;19.03;50.06;101612.47;5017392;28;20050;-80
2022/11/07 11:31:28;;;;;;;6.03;3.30;;;;;;;19.02;50.07;101605.41;5017223;28;20045;-80
2022/11/07 11:34:09;;;;;;;5.93;4.00;;;;;;;19.02;49.99;101610.78;5017128;28;20489;-80
2022/11/07 11:36:43;;;;;;;6.72;3.25;;;;;;;19.02;50.27;101606.25;5017020;28;20050;-80
2022/11/07 11:39:25;;;;;;;6.38;2.95;;;;;;;19.03;49.99;101601.75;5017129;28;20061;-80
2022/11/07 11:41:55;;;;;;;7.18;2.90;;;;;;;19.03;50.14;101597.25;5017152;28;20054;-80
2022/11/07 11:44:25;;;;;;;6.57;3.60;;;;;;;19.03;50.10;101593.69;5016570;28;20041;-77
2022/11/07 11:47:27;;;;;;;5.18;2.72;;;;;;;19.05;50.09;101598.97;5017101;28;20042;-80
2022/11/07 11:50:09;;;;;;;5.72;3.00;;;;;;;19.04;50.17;101592.75;5015896;28;20042;-78
2022/11/07 11:52:37;;;;;;;4.95;2.90;;;;;;;19.05;50.53;101596.28;5016983;28;20072;-80
2022/11/07 11:55:12;;;;;;;8.52;3.10;;;;;;;19.03;50.33;101589.19;5016807;28;20049;-81